Terrace, Terrace Northwest Regional Airport (CYXT)

NameTerrace Northwest Regional Airport
CityTerrace
CountryCanada
ICAOCYXT
IATAYXT
Altitude217 m
CoordinatesGoogle Map
Live Air TrafficLiveATC.net
METARCYXT 220700Z 20009KT 150V210 2 1/2SM -SN SCT006 BKN025 OVC120 M00/M01 A2961 RMK SF3SC3AC2 SLP041
2019-02-22 07:00:00 Wind: South (200°) 4.63 m/s - Visibility: 3218.68 m - Weather: Light Snow - Temperature: -0 °C - Dew point: -1 °C - Humidity: 93.1% - Pressure: 1002.71 hPa
Statistics

The table below shows the detailed information of all flights to/from Terrace, Terrace Northwest Regional Airport (CYXT).